Time;durP1;ratioP1;P1;durP2;ratioP2;P2;SDS_P1;SDS_P2;PMS_P1;PMS_P2;Temp;Humidity;BMP_temperature;BMP_pressure;BME280_temperature;BME280_humidity;BME280_pressure;Samples;Min_cycle;Max_cycle;Signal;HPM_P1;HPM_P2
2022/08/09 00:01:26;;;;;;;5.50;2.45;;;;;;;-145.69;95.03;71641.19;5053387;28;20207;-79
2022/08/09 00:03:54;;;;;;;2.57;2.13;;;;;;;-145.69;95.41;71647.16;5054291;28;20203;-79
2022/08/09 00:06:21;;;;;;;6.43;2.43;;;;;;;-145.69;94.73;71647.16;5053978;28;20531;-78
2022/08/09 00:08:49;;;;;;;2.22;1.95;;;;;;;-145.69;95.17;71637.19;5053968;28;20215;-78
2022/08/09 00:11:16;;;;;;;5.03;1.93;;;;;;;-145.69;94.89;71647.16;5053883;28;20227;-78
2022/08/09 00:13:42;;;;;;;2.58;2.03;;;;;;;-145.69;95.17;71641.19;5054122;28;20203;-78
2022/08/09 00:16:08;;;;;;;4.37;2.67;;;;;;;-145.69;95.99;71637.19;5053930;28;20211;-77
2022/08/09 00:18:36;;;;;;;6.33;2.63;;;;;;;-145.69;96.17;71641.19;5053732;28;20724;-79
2022/08/09 00:21:05;;;;;;;2.43;2.07;;;;;;;-145.69;94.81;71627.25;5074431;28;20230;-78
2022/08/09 00:23:32;;;;;;;2.90;2.00;;;;;;;-145.69;95.17;71627.25;5093698;28;20194;-78
2022/08/09 00:25:58;;;;;;;4.33;2.10;;;;;;;-145.69;96.82;71637.19;5093883;28;20198;-79
2022/08/09 00:28:25;;;;;;;3.80;2.70;;;;;;;-145.69;96.98;71641.19;5093990;28;20232;-78
2022/08/09 00:30:52;;;;;;;4.97;2.67;;;;;;;-145.69;98.43;71649.16;5093767;28;20205;-77
2022/08/09 00:33:19;;;;;;;4.13;2.67;;;;;;;-145.69;98.48;71637.19;5093799;28;20205;-77
2022/08/09 00:35:46;;;;;;;3.53;2.40;;;;;;;-145.69;98.00;71643.19;5093734;28;20209;-78
2022/08/09 00:38:14;;;;;;;5.15;2.30;;;;;;;-145.69;100.00;71645.16;5093662;28;20221;-77
2022/08/09 00:40:41;;;;;;;4.43;2.67;;;;;;;-145.69;100.00;71639.19;5093017;28;20525;-78
2022/08/09 00:43:08;;;;;;;2.78;2.40;;;;;;;-145.69;99.65;71647.16;5093731;28;20202;-77
2022/08/09 00:45:35;;;;;;;4.25;2.78;;;;;;;-145.69;100.00;71653.13;5093755;28;20202;-78
2022/08/09 00:48:02;;;;;;;4.75;2.70;;;;;;;-145.69;100.00;71657.09;5093479;28;20251;-77
2022/08/09 00:50:28;;;;;;;3.55;2.45;;;;;;;-145.69;100.00;71669.03;5093295;28;20648;-77
2022/08/09 00:52:55;;;;;;;3.25;2.50;;;;;;;-145.69;100.00;71669.03;5093394;28;20193;-77
2022/08/09 00:55:24;;;;;;;3.90;2.60;;;;;;;-145.69;100.00;71669.03;5093647;28;20561;-77
2022/08/09 00:57:50;;;;;;;8.83;3.10;;;;;;;-145.69;100.00;71663.06;5093433;28;20228;-78
2022/08/09 01:00:18;;;;;;;3.87;2.70;;;;;;;-145.69;100.00;71669.03;5093420;28;20202;-76
2022/08/09 01:02:48;;;;;;;5.80;3.17;;;;;;;-145.69;100.00;71673.03;5093382;28;20202;-77
2022/08/09 01:05:23;;;;;;;3.87;3.20;;;;;;;-145.69;100.00;71671.03;5093000;28;20206;-77
2022/08/09 01:07:57;;;;;;;3.37;2.73;;;;;;;-145.69;100.00;71677.00;5093507;28;20584;-77
2022/08/09 01:10:34;;;;;;;6.27;2.70;;;;;;;-145.69;100.00;71671.03;5093268;28;20201;-77
2022/08/09 01:13:03;;;;;;;4.60;2.58;;;;;;;-145.69;100.00;71673.03;5092953;28;20197;-79
2022/08/09 01:15:37;;;;;;;5.90;3.00;;;;;;;-145.69;100.00;71671.03;5092784;28;20206;-76
2022/08/09 01:18:07;;;;;;;4.63;3.17;;;;;;;-145.69;100.00;71671.03;5093059;28;20218;-78
2022/08/09 01:20:42;;;;;;;6.73;2.90;;;;;;;-145.69;100.00;71675.00;5092743;28;20226;-78
2022/08/09 01:23:25;;;;;;;5.23;3.23;;;;;;;-145.69;100.00;71684.97;5093181;28;20216;-77
2022/08/09 01:26:00;;;;;;;4.00;3.20;;;;;;;-145.69;100.00;71679.00;5092624;28;20202;-78
2022/08/09 01:28:30;;;;;;;5.20;3.07;;;;;;;-145.69;100.00;71692.94;5093160;28;20295;-78
2022/08/09 01:31:00;;;;;;;4.83;3.33;;;;;;;-145.69;100.00;71692.94;5092912;28;20198;-77
2022/08/09 01:33:29;;;;;;;5.67;3.07;;;;;;;-145.69;100.00;71700.88;5092782;28;20194;-77
2022/08/09 01:36:02;;;;;;;4.33;3.33;;;;;;;-145.69;100.00;71696.91;5093090;28;20229;-77
2022/08/09 01:38:34;;;;;;;3.87;3.40;;;;;;;-145.69;100.00;71692.94;5092843;28;20230;-78
2022/08/09 01:41:05;;;;;;;5.50;3.47;;;;;;;-145.69;100.00;71700.88;5093131;28;20206;-79
2022/08/09 01:43:35;;;;;;;4.80;3.17;;;;;;;-145.69;100.00;71702.88;5092754;28;20228;-79
2022/08/09 01:46:02;;;;;;;6.07;3.20;;;;;;;-145.69;100.00;71700.88;5092571;28;20205;-78
2022/08/09 01:48:30;;;;;;;7.33;3.13;;;;;;;-145.69;100.00;71706.84;5093329;28;20206;-79
2022/08/09 01:50:59;;;;;;;6.27;3.30;;;;;;;-145.69;100.00;71700.88;5092844;28;20293;-77
2022/08/09 01:53:26;;;;;;;4.33;3.40;;;;;;;-145.69;100.00;71704.88;5092746;28;20256;-79
2022/08/09 01:55:53;;;;;;;6.57;3.83;;;;;;;-145.69;100.00;71702.88;5092897;28;20205;-77
2022/08/09 01:58:20;;;;;;;4.67;3.87;;;;;;;-145.69;100.00;71694.91;5092677;28;20237;-77
2022/08/09 02:00:50;;;;;;;3.43;3.13;;;;;;;-145.69;100.00;71692.94;5092720;28;20683;-78
2022/08/09 02:03:19;;;;;;;6.37;3.43;;;;;;;-145.69;100.00;71692.94;5092340;28;20198;-77
2022/08/09 02:05:48;;;;;;;4.87;3.43;;;;;;;-145.69;100.00;71684.97;5092542;28;20202;-77
2022/08/09 02:08:17;;;;;;;5.23;3.20;;;;;;;-145.69;100.00;71690.94;5092658;28;20221;-78
2022/08/09 02:10:48;;;;;;;5.07;3.53;;;;;;;-145.69;100.00;71680.97;5092659;28;20668;-77
2022/08/09 02:13:16;;;;;;;7.53;3.23;;;;;;;-145.69;100.00;71680.97;5092758;28;20210;-78
2022/08/09 02:15:48;;;;;;;6.53;3.30;;;;;;;-145.69;100.00;71667.06;5092430;28;20206;-77
2022/08/09 02:18:17;;;;;;;3.43;3.00;;;;;;;-145.69;100.00;71694.91;5092657;28;20229;-77
2022/08/09 02:20:48;;;;;;;8.13;3.40;;;;;;;-145.69;100.00;71704.88;5092462;28;20518;-78
2022/08/09 02:23:19;;;;;;;4.77;3.00;;;;;;;-145.69;100.00;71708.84;5092745;28;20206;-77
2022/08/09 02:25:49;;;;;;;3.17;2.87;;;;;;;-145.69;100.00;71720.78;5095647;28;20603;-76
2022/08/09 02:28:18;;;;;;;3.13;2.83;;;;;;;-145.69;100.00;71720.78;5095927;28;20226;-77
2022/08/09 02:30:48;;;;;;;8.07;3.03;;;;;;;-145.69;100.00;71714.81;5096547;28;20225;-77
2022/08/09 02:33:22;;;;;;;9.33;3.67;;;;;;;-145.69;100.00;71728.75;5096023;28;20205;-78
2022/08/09 02:35:54;;;;;;;4.20;3.07;;;;;;;-145.69;100.00;71736.72;5096095;28;20204;-76
2022/08/09 02:38:26;;;;;;;4.37;3.37;;;;;;;-145.69;100.00;71748.66;5095669;28;20252;-77
2022/08/09 02:40:55;;;;;;;3.93;3.27;;;;;;;-145.69;100.00;71748.66;5095989;28;20194;-77
2022/08/09 02:43:24;;;;;;;5.70;3.30;;;;;;;-145.69;100.00;71760.59;5095913;28;20668;-78
2022/08/09 02:45:52;;;;;;;3.77;3.10;;;;;;;-145.69;100.00;71768.53;5095977;28;20209;-79
2022/08/09 02:48:21;;;;;;;5.77;3.60;;;;;;;-145.69;100.00;71768.53;5095524;28;20209;-78
2022/08/09 02:50:49;;;;;;;4.70;3.10;;;;;;;-145.69;100.00;71770.53;5095882;28;20580;-77
2022/08/09 02:53:20;;;;;;;5.13;3.20;;;;;;;-145.69;100.00;71768.53;5095722;28;20236;-77
2022/08/09 02:55:48;;;;;;;7.33;3.60;;;;;;;-145.69;100.00;71780.50;5095954;28;20198;-77
2022/08/09 02:58:17;;;;;;;6.33;3.87;;;;;;;-145.69;100.00;71788.44;5095537;28;20703;-77
2022/08/09 03:00:44;;;;;;;5.33;3.40;;;;;;;-145.69;100.00;71790.44;5095425;28;20197;-77
2022/08/09 03:03:12;;;;;;;4.77;3.60;;;;;;;-145.69;100.00;71788.44;5095598;28;20265;-76
2022/08/09 03:05:42;;;;;;;6.10;3.80;;;;;;;-145.69;100.00;71788.44;5094820;28;20433;-76
2022/08/09 03:08:10;;;;;;;4.10;3.70;;;;;;;-145.69;100.00;71782.47;5095396;28;20237;-77
2022/08/09 03:10:37;;;;;;;5.50;3.50;;;;;;;-145.69;100.00;71788.44;5095577;28;20202;-78
2022/08/09 03:13:06;;;;;;;3.60;3.20;;;;;;;-145.69;100.00;71820.28;5095209;28;20606;-78
2022/08/09 03:15:33;;;;;;;4.03;3.50;;;;;;;-145.69;100.00;71840.19;5095420;28;20719;-76
2022/08/09 03:18:00;;;;;;;4.20;3.40;;;;;;;-145.69;100.00;71854.13;5095305;28;20594;-77
2022/08/09 03:20:27;;;;;;;5.40;3.60;;;;;;;-145.69;100.00;71868.06;5094812;28;20339;-77
2022/08/09 03:22:57;;;;;;;5.20;3.90;;;;;;;-145.69;100.00;71860.09;5095384;28;20197;-77
2022/08/09 03:25:24;;;;;;;6.77;3.67;;;;;;;-145.69;100.00;71868.06;5095065;28;20194;-77
2022/08/09 03:27:51;;;;;;;7.30;3.23;;;;;;;-145.69;100.00;71880.00;5095269;28;20572;-78
2022/08/09 03:30:18;;;;;;;5.07;3.97;;;;;;;-145.69;100.00;71870.03;5095035;28;20388;-77
2022/08/09 03:32:45;;;;;;;4.13;3.33;;;;;;;-145.69;100.00;71881.97;5094998;28;20198;-77
2022/08/09 03:35:12;;;;;;;6.03;3.87;;;;;;;-145.69;100.00;71868.06;5094673;28;20206;-78
2022/08/09 03:37:39;;;;;;;7.40;3.60;;;;;;;-145.69;100.00;71883.97;5094575;28;20719;-77
2022/08/09 03:40:09;;;;;;;5.47;3.43;;;;;;;-145.69;100.00;71903.88;5094910;28;20237;-77
2022/08/09 03:42:35;;;;;;;5.10;3.90;;;;;;;-145.69;100.00;71917.81;5093799;28;20433;-77
2022/08/09 03:45:02;;;;;;;6.60;3.70;;;;;;;-145.69;100.00;71939.69;5094476;28;20213;-77
2022/08/09 03:47:28;;;;;;;5.03;3.53;;;;;;;-145.69;100.00;71955.63;5093870;28;20202;-78
2022/08/09 03:49:56;;;;;;;4.47;3.47;;;;;;;-145.69;100.00;71975.50;5094686;28;20202;-76
2022/08/09 03:52:24;;;;;;;6.13;3.73;;;;;;;-145.69;100.00;71995.41;5094692;28;20240;-79
2022/08/09 03:54:52;;;;;;;7.30;4.20;;;;;;;-145.69;100.00;72015.31;5094478;28;20213;-79
2022/08/09 03:57:21;;;;;;;5.23;3.83;;;;;;;-145.69;100.00;72023.28;5094498;28;20198;-77
2022/08/09 03:59:49;;;;;;;5.97;3.80;;;;;;;-145.69;100.00;72033.22;5094308;28;20237;-76
2022/08/09 04:02:16;;;;;;;5.03;4.20;;;;;;;-145.69;100.00;72043.19;5093963;28;20197;-76
2022/08/09 04:04:42;;;;;;;11.33;5.10;;;;;;;-145.69;100.00;72011.34;5074463;28;20191;-77
2022/08/09 04:07:09;;;;;;;5.67;4.73;;;;;;;-145.69;100.00;71997.41;5074194;28;20608;-77
2022/08/09 04:09:35;;;;;;;9.53;4.50;;;;;;;-145.69;100.00;71997.41;5073999;28;20202;-77
2022/08/09 04:12:41;;;;;;;7.87;5.10;;;;;;;-145.69;100.00;72001.38;5076067;28;20206;-77
2022/08/09 04:15:08;;;;;;;5.77;4.87;;;;;;;-145.69;100.00;72015.31;5094258;28;20238;-75
2022/08/09 04:17:35;;;;;;;5.33;4.53;;;;;;;-145.69;100.00;72003.38;5094163;28;20201;-76
2022/08/09 04:20:01;;;;;;;11.63;4.87;;;;;;;-145.69;100.00;72011.34;5094266;28;20233;-78
2022/08/09 04:22:28;;;;;;;5.93;5.33;;;;;;;-145.69;100.00;72003.38;5094041;28;20198;-77
2022/08/09 04:24:54;;;;;;;7.10;5.30;;;;;;;-145.69;100.00;72003.38;5093737;28;20194;-77
2022/08/09 04:27:20;;;;;;;5.60;4.97;;;;;;;-145.69;100.00;71989.44;5093616;28;20201;-77
2022/08/09 04:29:48;;;;;;;7.10;4.97;;;;;;;-145.69;100.00;71983.47;5094168;28;20195;-77
2022/08/09 04:32:15;;;;;;;11.30;5.20;;;;;;;-145.69;100.00;71969.53;5094083;28;20255;-76
2022/08/09 04:34:41;;;;;;;12.33;5.13;;;;;;;-145.69;100.00;71951.63;5093950;28;20209;-77
2022/08/09 04:37:07;;;;;;;11.17;4.87;;;;;;;-145.69;100.00;71933.72;5093655;28;20201;-76
2022/08/09 04:39:34;;;;;;;18.00;4.73;;;;;;;-145.69;100.00;71935.72;5093584;28;20225;-77
2022/08/09 04:42:00;;;;;;;6.37;4.80;;;;;;;-145.69;100.00;71931.72;5093578;28;20606;-76
2022/08/09 04:44:27;;;;;;;8.23;4.27;;;;;;;-145.69;100.00;71923.78;5093850;28;20202;-76
2022/08/09 04:46:55;;;;;;;6.77;4.33;;;;;;;-145.69;100.00;71925.75;5092966;28;20209;-76
2022/08/09 04:49:21;;;;;;;8.83;4.73;;;;;;;-145.69;100.00;71929.75;5093384;28;20198;-76
2022/08/09 04:51:47;;;;;;;10.47;4.43;;;;;;;-145.69;100.00;71931.72;5093309;28;20190;-77
2022/08/09 04:54:14;;;;;;;9.73;4.37;;;;;;;-145.69;100.00;71919.78;5093363;28;20789;-76
2022/08/09 04:56:40;;;;;;;5.50;4.30;;;;;;;-145.69;100.00;71915.81;5093358;28;20205;-76
2022/08/09 04:59:07;;;;;;;5.77;4.30;;;;;;;-145.69;100.00;71913.81;5093426;28;20222;-76
2022/08/09 05:01:33;;;;;;;5.63;4.27;;;;;;;-145.69;100.00;71907.84;5093301;28;20268;-76
2022/08/09 05:04:01;;;;;;;4.83;3.63;;;;;;;-145.69;100.00;71901.88;5093255;28;20206;-76
2022/08/09 05:06:27;;;;;;;7.20;3.87;;;;;;;-145.69;100.00;71891.94;5093420;28;20202;-77
2022/08/09 05:08:54;;;;;;;6.40;3.60;;;;;;;-145.69;100.00;71838.19;5093248;28;20656;-76
2022/08/09 05:11:22;;;;;;;5.27;3.53;;;;;;;-145.69;100.00;71844.16;5093543;28;20209;-76
2022/08/09 05:13:48;;;;;;;5.67;3.80;;;;;;;-145.69;100.00;71844.16;5092972;28;20644;-75
2022/08/09 05:16:15;;;;;;;8.53;4.00;;;;;;;-145.69;100.00;71824.25;5093429;28;20221;-76
2022/08/09 05:18:41;;;;;;;6.83;3.57;;;;;;;-145.69;100.00;71800.38;5093151;28;20228;-76
2022/08/09 05:21:09;;;;;;;4.50;3.30;;;;;;;-145.69;100.00;71772.53;5091695;28;20436;-78
2022/08/09 05:23:35;;;;;;;5.03;3.30;;;;;;;-145.69;100.00;71736.72;5093336;28;20202;-77
2022/08/09 05:26:01;;;;;;;4.97;3.13;;;;;;;-145.69;100.00;71708.84;5092806;28;20202;-79
2022/08/09 05:28:28;;;;;;;2.83;2.50;;;;;;;-145.69;100.00;71680.97;5092960;28;20202;-78
2022/08/09 05:30:54;;;;;;;5.40;2.90;;;;;;;-145.69;100.00;71684.97;5093048;28;20206;-79
2022/08/09 05:33:21;;;;;;;7.80;2.97;;;;;;;-145.69;100.00;71679.00;5092814;28;20202;-77
2022/08/09 05:35:48;;;;;;;5.47;2.67;;;;;;;-145.69;100.00;71649.16;5092577;28;20244;-78
2022/08/09 05:38:15;;;;;;;5.40;2.53;;;;;;;-145.69;100.00;71637.19;5092444;28;20619;-78
2022/08/09 05:40:42;;;;;;;3.10;2.50;;;;;;;-145.69;100.00;71611.34;5092686;28;20768;-78
2022/08/09 05:43:08;;;;;;;3.88;2.50;;;;;;;-145.69;97.41;71581.50;5093060;28;20198;-78
2022/08/09 05:45:35;;;;;;;3.10;2.40;;;;;;;-145.69;92.37;71533.72;5092841;28;20198;-80
2022/08/09 05:48:01;;;;;;;4.07;2.40;;;;;;;-145.69;94.35;71509.84;5091196;28;20553;-79
2022/08/09 05:50:28;;;;;;;3.65;2.50;;;;;;;-145.69;94.21;71513.81;5090832;28;20264;-79
2022/08/09 05:52:54;;;;;;;2.38;1.98;;;;;;;-145.69;90.08;71491.94;5091024;28;20611;-77
2022/08/09 05:55:23;;;;;;;3.30;1.95;;;;;;;-145.69;87.35;71458.09;5091070;28;20278;-79
2022/08/09 05:57:50;;;;;;;3.20;1.92;;;;;;;-145.69;84.09;71426.28;5091041;28;20205;-79
2022/08/09 06:00:17;;;;;;;3.63;2.10;;;;;;;-145.69;84.89;71406.38;5094454;28;20222;-77
2022/08/09 06:02:43;;;;;;;4.03;1.95;;;;;;;-145.69;84.08;71392.44;5095311;28;20194;-77
2022/08/09 06:05:10;;;;;;;2.78;1.63;;;;;;;-145.69;86.57;71386.47;5096607;28;20201;-79
2022/08/09 06:07:37;;;;;;;4.15;2.20;;;;;;;-145.69;80.62;71364.59;5096848;28;20208;-78
2022/08/09 06:10:05;;;;;;;5.72;2.00;;;;;;;-145.69;81.60;71350.66;5096770;28;20599;-78
2022/08/09 06:12:33;;;;;;;3.65;2.17;;;;;;;-145.69;78.18;71330.75;5096372;28;20198;-77
2022/08/09 06:14:59;;;;;;;2.78;2.15;;;;;;;-145.69;76.99;71306.88;5096621;28;20294;-79
2022/08/09 06:17:26;;;;;;;5.60;1.88;;;;;;;-145.69;73.63;71273.06;5096530;28;20202;-78
2022/08/09 06:19:52;;;;;;;4.60;2.03;;;;;;;-145.69;72.55;71255.16;5096229;28;20253;-78
2022/08/09 06:22:19;;;;;;;6.35;1.83;;;;;;;-145.69;71.08;71225.31;5096339;28;20721;-77
2022/08/09 06:24:45;;;;;;;4.38;1.85;;;;;;;-145.69;70.60;71205.41;5096329;28;20230;-79
2022/08/09 06:27:13;;;;;;;2.35;1.70;;;;;;;-145.69;67.11;71169.59;5096202;28;20678;-78
2022/08/09 06:29:41;;;;;;;3.40;1.70;;;;;;;-145.69;65.78;71151.69;5096340;28;20276;-78
2022/08/09 06:32:07;;;;;;;4.07;1.70;;;;;;;-145.69;65.60;71131.78;5096083;28;20209;-79
2022/08/09 06:34:34;;;;;;;2.15;1.50;;;;;;;-145.69;63.76;71123.81;5096262;28;20201;-78
2022/08/09 06:37:00;;;;;;;4.70;1.30;;;;;;;-145.69;62.84;71099.94;5095980;28;20209;-79
2022/08/09 06:39:28;;;;;;;3.70;1.45;;;;;;;-145.69;62.59;71080.06;5095991;28;20218;-78
2022/08/09 06:41:55;;;;;;;2.83;1.60;;;;;;;-145.69;64.04;71080.06;5096157;28;20234;-78
2022/08/09 06:44:21;;;;;;;3.95;1.40;;;;;;;-145.69;62.54;71062.13;5095971;28;20201;-77
2022/08/09 06:46:50;;;;;;;4.38;1.40;;;;;;;-145.69;62.31;71058.16;5095785;28;20251;-79
2022/08/09 06:49:16;;;;;;;4.75;1.35;;;;;;;-145.69;59.93;71050.22;5095905;28;20202;-78
2022/08/09 06:51:43;;;;;;;4.35;1.48;;;;;;;-145.69;59.21;71034.28;5095904;28;20202;-79
2022/08/09 06:54:11;;;;;;;4.10;1.50;;;;;;;-145.69;60.01;71020.34;5095899;28;20198;-77
2022/08/09 06:56:37;;;;;;;2.72;1.30;;;;;;;-145.69;57.56;71020.34;5095749;28;20198;-77
2022/08/09 06:59:04;;;;;;;5.93;1.50;;;;;;;-145.69;59.26;71004.44;5095701;28;20275;-78
2022/08/09 07:01:30;;;;;;;5.72;1.55;;;;;;;-145.69;61.29;70986.53;5095462;28;20238;-79
2022/08/09 07:03:58;;;;;;;2.35;1.35;;;;;;;-145.69;57.72;70980.56;5086060;28;20191;-80
2022/08/09 07:06:24;;;;;;;2.85;1.33;;;;;;;-145.69;55.71;70972.59;5073921;28;20206;-80
2022/08/09 07:08:51;;;;;;;2.50;1.58;;;;;;;-145.69;55.69;70960.66;5075181;28;20203;-79
2022/08/09 07:11:17;;;;;;;4.47;1.40;;;;;;;-145.69;56.09;70950.72;5074723;28;20256;-79
2022/08/09 07:13:43;;;;;;;1.65;1.17;;;;;;;-145.69;53.56;70940.78;5094073;28;20199;-80
2022/08/09 07:16:10;;;;;;;2.67;1.52;;;;;;;-145.69;53.71;70940.78;5095032;28;20717;-80
2022/08/09 07:18:36;;;;;;;2.30;1.30;;;;;;;-145.69;54.42;70928.84;5095345;28;20652;-80
2022/08/09 07:21:04;;;;;;;2.90;1.27;;;;;;;-145.69;55.18;70916.91;5094988;28;20241;-79
2022/08/09 07:23:31;;;;;;;4.50;1.58;;;;;;;-145.69;54.65;70904.97;5095509;28;20205;-79
2022/08/09 07:25:57;;;;;;;2.15;1.15;;;;;;;-145.69;54.05;70914.91;5094864;28;20198;-78
2022/08/09 07:28:25;;;;;;;3.15;1.30;;;;;;;-145.69;52.57;70887.06;5095007;28;20202;-79
2022/08/09 07:30:52;;;;;;;7.07;1.40;;;;;;;-145.69;53.80;70885.06;5095035;28;20652;-82
2022/08/09 07:33:19;;;;;;;3.25;1.60;;;;;;;-145.69;52.40;70881.09;5095179;28;20297;-80
2022/08/09 07:35:45;;;;;;;6.90;1.75;;;;;;;-145.69;50.84;70881.09;5094952;28;20206;-79
2022/08/09 07:38:13;;;;;;;4.68;1.70;;;;;;;-145.69;51.00;70873.13;5094763;28;20201;-78
2022/08/09 07:40:39;;;;;;;2.72;1.25;;;;;;;-145.69;52.72;70869.16;5094769;28;20248;-82
2022/08/09 07:43:06;;;;;;;1.95;1.48;;;;;;;-145.69;52.59;70873.13;5094725;28;20202;-79
2022/08/09 07:45:32;;;;;;;3.35;1.55;;;;;;;-145.69;51.28;70857.22;5094207;28;20194;-80
2022/08/09 07:47:59;;;;;;;2.75;1.42;;;;;;;-145.69;53.38;70839.31;5094571;28;20652;-81
2022/08/09 07:50:27;;;;;;;3.88;1.20;;;;;;;-145.69;51.58;70829.34;5094346;28;20197;-79
2022/08/09 07:52:54;;;;;;;2.00;1.38;;;;;;;-145.69;51.15;70813.44;5094628;28;20201;-79
2022/08/09 07:55:22;;;;;;;1.42;1.23;;;;;;;-145.69;50.37;70821.41;5094562;28;20294;-84
2022/08/09 07:57:49;;;;;;;6.20;1.58;;;;;;;-145.69;49.51;70823.38;5094247;28;20678;-79
2022/08/09 08:00:16;;;;;;;5.78;1.50;;;;;;;-145.69;50.26;70829.34;5094380;28;20229;-80
2022/08/09 08:02:43;;;;;;;4.57;1.38;;;;;;;-145.69;48.68;70827.38;5094249;28;20195;-80
2022/08/09 08:05:09;;;;;;;3.72;1.42;;;;;;;-145.69;49.05;70809.47;5094522;28;20607;-80
2022/08/09 08:07:36;;;;;;;2.95;1.50;;;;;;;-145.69;48.07;70805.47;5094174;28;20205;-80
2022/08/09 08:10:03;;;;;;;4.07;1.65;;;;;;;-145.69;48.55;70817.41;5094259;28;20198;-78
2022/08/09 08:12:31;;;;;;;3.35;1.27;;;;;;;-145.69;48.87;70829.34;5092875;28;20202;-80
2022/08/09 08:14:58;;;;;;;2.13;1.30;;;;;;;-145.69;47.65;70779.63;5093951;28;20202;-80
2022/08/09 08:17:24;;;;;;;2.92;1.20;;;;;;;-145.69;46.76;70773.66;5094175;28;20226;-79
2022/08/09 08:19:51;;;;;;;2.90;1.63;;;;;;;-145.69;46.77;70769.66;5094067;28;20198;-77
2022/08/09 08:22:17;;;;;;;3.15;1.60;;;;;;;-145.69;45.58;70747.78;5092313;28;20201;-80
2022/08/09 08:24:44;;;;;;;1.52;1.30;;;;;;;-145.69;45.42;70757.72;5092279;28;20201;-78
2022/08/09 08:27:10;;;;;;;3.67;1.40;;;;;;;-145.69;45.72;70753.75;5091902;28;20676;-79
2022/08/09 08:29:38;;;;;;;4.45;1.50;;;;;;;-145.69;44.88;70729.88;5091375;28;20436;-80
2022/08/09 08:32:04;;;;;;;4.18;1.50;;;;;;;-145.69;45.84;70737.84;5091992;28;20210;-82
2022/08/09 08:34:31;;;;;;;3.03;1.67;;;;;;;-145.69;46.73;70729.88;5091793;28;20198;-80
2022/08/09 08:36:57;;;;;;;4.30;1.92;;;;;;;-145.69;43.81;70698.03;5092460;28;20190;-79
2022/08/09 08:39:24;;;;;;;2.20;1.30;;;;;;;-145.69;41.45;70702.03;5093332;28;20651;-78
2022/08/09 08:41:51;;;;;;;2.05;1.30;;;;;;;-145.69;43.56;70713.97;5093795;28;20225;-78
2022/08/09 08:44:18;;;;;;;3.35;1.30;;;;;;;-145.69;44.77;70719.94;5093989;28;20625;-77
2022/08/09 08:46:46;;;;;;;1.48;1.38;;;;;;;-145.69;42.59;70709.97;5093744;28;20259;-79
2022/08/09 08:49:14;;;;;;;3.88;1.38;;;;;;;-145.69;43.46;70686.09;5093403;28;20252;-78
2022/08/09 08:51:40;;;;;;;2.58;1.25;;;;;;;-145.69;41.07;70674.16;5093461;28;20198;-79
2022/08/09 08:54:08;;;;;;;2.25;1.30;;;;;;;-145.69;40.65;70708.00;5093894;28;20206;-80
2022/08/09 08:56:35;;;;;;;3.30;1.27;;;;;;;-145.69;40.69;70706.00;5093429;28;20210;-80
2022/08/09 08:59:04;;;;;;;4.93;1.45;;;;;;;-145.69;42.35;70711.97;5093751;28;20230;-77
2022/08/09 09:01:31;;;;;;;1.55;1.05;;;;;;;-145.69;40.85;70708.00;5093206;28;20225;-79
2022/08/09 09:04:00;;;;;;;4.40;1.42;;;;;;;-145.69;41.96;70686.09;5093357;28;20198;-78
2022/08/09 09:06:30;;;;;;;4.32;1.30;;;;;;;-145.69;41.08;70690.09;5093236;28;20206;-81
2022/08/09 09:08:57;;;;;;;3.25;1.30;;;;;;;-145.69;40.27;70711.97;5093429;28;20209;-81
2022/08/09 09:11:24;;;;;;;2.45;1.10;;;;;;;-145.69;40.98;70690.09;5093127;28;20201;-80
2022/08/09 09:13:53;;;;;;;3.83;1.25;;;;;;;-145.69;41.52;70678.16;5093159;28;20197;-81
2022/08/09 09:16:20;;;;;;;5.13;1.45;;;;;;;-145.69;41.25;70686.09;5093307;28;20588;-79
2022/08/09 09:18:46;;;;;;;3.65;1.15;;;;;;;-145.69;41.08;70662.22;5093164;28;20202;-79
2022/08/09 09:21:14;;;;;;;3.40;1.20;;;;;;;-145.69;40.71;70644.31;5092825;28;20271;-80
2022/08/09 09:23:44;;;;;;;3.85;1.40;;;;;;;-145.69;40.35;70670.19;5093056;28;20198;-82
2022/08/09 09:26:12;;;;;;;3.03;1.42;;;;;;;-145.69;38.86;70654.28;5093439;28;20204;-80
2022/08/09 09:28:43;;;;;;;3.97;1.13;;;;;;;-145.69;39.23;70666.22;5093715;28;20224;-78
2022/08/09 09:31:13;;;;;;;2.97;1.20;;;;;;;-145.69;39.44;70658.25;5094018;28;20198;-81
2022/08/09 09:33:40;;;;;;;3.45;1.20;;;;;;;-145.69;39.34;70676.16;5092927;28;20194;-79
2022/08/09 09:36:07;;;;;;;1.45;1.08;;;;;;;-145.69;40.34;70658.25;5092945;28;20190;-80
2022/08/09 09:38:56;;;;;;;2.10;1.33;;;;;;;-145.69;39.06;70662.22;5092998;28;20198;-78
2022/08/09 09:41:31;;;;;;;4.25;1.20;;;;;;;-145.69;39.76;70668.19;5086709;28;20234;-78
2022/08/09 09:44:00;;;;;;;2.20;1.25;;;;;;;-145.69;39.63;70668.19;5092804;28;20197;-78
2022/08/09 09:46:30;;;;;;;4.70;1.40;;;;;;;-145.69;40.01;70666.22;5093066;28;20197;-79
2022/08/09 09:48:58;;;;;;;2.33;1.40;;;;;;;-145.69;39.92;70670.19;5092213;28;20194;-81
2022/08/09 09:51:28;;;;;;;2.35;1.20;;;;;;;-145.69;39.44;70652.28;5092831;28;20198;-77
2022/08/09 09:54:06;;;;;;;3.60;1.13;;;;;;;-145.69;38.55;70630.41;5092748;28;20595;-82
2022/08/09 09:56:33;;;;;;;2.20;1.40;;;;;;;-145.69;40.04;70622.44;5092777;28;20202;-79
2022/08/09 09:59:00;;;;;;;1.48;1.08;;;;;;;-145.69;38.31;70624.44;5092860;28;20202;-80
2022/08/09 10:01:27;;;;;;;5.40;1.63;;;;;;;-145.69;37.75;70628.41;5092422;28;20226;-83
2022/08/09 10:03:54;;;;;;;2.33;1.30;;;;;;;-145.69;37.76;70608.53;5093216;28;20247;-82
2022/08/09 10:06:20;;;;;;;4.60;1.55;;;;;;;-145.69;37.69;70610.50;5093632;28;20213;-86
2022/08/09 10:08:48;;;;;;;3.38;1.27;;;;;;;-145.69;38.33;70616.47;5092843;28;20556;-80
2022/08/09 10:11:22;;;;;;;5.25;1.23;;;;;;;-145.69;37.33;70620.44;5092623;28;20557;-81
2022/08/09 10:13:49;;;;;;;2.88;1.27;;;;;;;-145.69;37.33;70614.47;5072743;28;20207;-81
2022/08/09 10:16:26;;;;;;;1.52;1.30;;;;;;;-145.69;38.96;70634.38;5072597;28;20217;-79
2022/08/09 10:18:54;;;;;;;3.22;1.20;;;;;;;-145.69;38.62;70602.56;5072457;28;20202;-78
2022/08/09 10:21:20;;;;;;;5.25;1.20;;;;;;;-145.69;37.91;70630.41;5072179;28;20245;-77
2022/08/09 10:23:47;;;;;;;4.20;1.20;;;;;;;-145.69;37.60;70624.44;5075626;28;20202;-78
2022/08/09 10:26:14;;;;;;;3.33;1.52;;;;;;;-145.69;37.30;70616.47;5092696;28;20202;-77
2022/08/09 10:28:43;;;;;;;2.35;1.25;;;;;;;-145.69;38.75;70594.59;5092577;28;20529;-80
2022/08/09 10:31:12;;;;;;;2.10;1.10;;;;;;;-145.69;38.50;70578.69;5092548;28;20251;-79
2022/08/09 10:33:39;;;;;;;1.92;1.23;;;;;;;-145.69;38.55;70576.69;5092454;28;20208;-82
2022/08/09 10:36:08;;;;;;;9.30;1.33;;;;;;;-145.69;37.62;70570.72;5092243;28;20209;-78
2022/08/09 10:38:36;;;;;;;2.28;1.25;;;;;;;-145.69;37.83;70570.72;5091946;28;20202;-81
2022/08/09 10:41:03;;;;;;;1.77;0.90;;;;;;;-145.69;38.31;70540.88;5091045;28;20225;-78
2022/08/09 10:43:30;;;;;;;2.00;1.20;;;;;;;-145.69;36.33;70562.75;5092171;28;20198;-80
2022/08/09 10:46:02;;;;;;;3.80;0.95;;;;;;;-145.69;35.49;70578.69;5094328;28;20202;-82
2022/08/09 10:48:36;;;;;;;5.90;1.05;;;;;;;-145.69;36.24;70564.75;5094924;28;20212;-79
2022/08/09 10:51:13;;;;;;;5.90;1.30;;;;;;;-145.69;36.02;70550.81;5093751;28;20198;-80
2022/08/09 10:53:50;;;;;;;1.50;1.10;;;;;;;-145.69;35.03;70546.84;5096032;28;20204;-79
2022/08/09 10:56:21;;;;;;;2.95;1.10;;;;;;;-145.69;35.34;70570.72;5095664;28;20619;-78
2022/08/09 10:58:47;;;;;;;1.95;1.20;;;;;;;-145.69;36.78;70552.81;5095136;28;20207;-78
2022/08/09 11:01:38;;;;;;;1.35;1.10;;;;;;;-145.69;36.54;70526.94;5095539;28;20222;-79
2022/08/09 11:04:19;;;;;;;3.38;1.20;;;;;;;-145.69;35.39;70505.06;5095496;28;20284;-80
2022/08/09 11:06:47;;;;;;;1.27;1.17;;;;;;;-145.69;36.11;70528.94;5095660;28;20201;-80
2022/08/09 11:09:18;;;;;;;2.45;1.20;;;;;;;-145.69;34.65;70519.00;5095213;28;20194;-78
2022/08/09 11:12:10;;;;;;;2.95;1.30;;;;;;;-145.69;35.45;70530.94;5095758;28;20202;-80
2022/08/09 11:14:40;;;;;;;2.05;1.08;;;;;;;-145.69;35.19;70524.97;5095561;28;20209;-77
2022/08/09 11:17:39;;;;;;;3.10;1.20;;;;;;;-145.69;35.42;70501.09;5094353;28;20212;-76
2022/08/09 11:20:09;;;;;;;5.22;1.20;;;;;;;-145.69;35.58;70503.06;5084529;28;20199;-83